Time;durP1;ratioP1;P1;durP2;ratioP2;P2;SDS_P1;SDS_P2;PMS_P1;PMS_P2;Temp;Humidity;BMP_temperature;BMP_pressure;BME280_temperature;BME280_humidity;BME280_pressure;Samples;Min_cycle;Max_cycle;Signal;HPM_P1;HPM_P2
2023/02/18 00:08:01;;;;;;;5.75;3.00;;;;;;;11.75;100.00;101267.06;20790200;28;20050;-74
2023/02/18 00:18:02;;;;;;;6.68;3.03;;;;;;;11.82;100.00;101260.91;20794115;28;20498;-75
2023/02/18 00:28:03;;;;;;;6.13;3.20;;;;;;;11.89;100.00;101252.13;20789083;28;20510;-75
2023/02/18 00:38:05;;;;;;;7.35;3.47;;;;;;;11.79;100.00;101238.16;20795367;28;20045;-75
2023/02/18 00:48:06;;;;;;;7.13;3.60;;;;;;;11.91;100.00;101245.09;20806110;28;20046;-75
2023/02/18 00:58:07;;;;;;;6.65;4.15;;;;;;;11.85;100.00;101245.16;20805936;28;20413;-76
2023/02/18 01:08:09;;;;;;;6.78;4.15;;;;;;;11.79;100.00;101242.56;20798618;28;20115;-76
2023/02/18 01:18:10;;;;;;;7.28;4.53;;;;;;;11.84;100.00;101238.16;20792830;28;20413;-77
2023/02/18 01:28:11;;;;;;;7.00;4.25;;;;;;;11.79;100.00;101224.19;20797581;28;20064;-76
2023/02/18 01:38:12;;;;;;;9.70;4.47;;;;;;;11.74;100.00;101220.72;20796918;28;20045;-76
2023/02/18 01:48:14;;;;;;;8.07;3.97;;;;;;;11.77;100.00;101241.66;20794417;28;20050;-77
2023/02/18 01:58:15;;;;;;;7.10;4.00;;;;;;;11.79;100.00;101218.94;20802310;28;20049;-75
2023/02/18 02:08:16;;;;;;;7.18;4.57;;;;;;;11.78;100.00;101212.78;20796422;28;20077;-76
2023/02/18 02:18:18;;;;;;;8.10;4.80;;;;;;;11.67;100.00;101209.38;20797840;28;20046;-75
2023/02/18 02:28:19;;;;;;;7.28;4.68;;;;;;;11.78;100.00;101201.44;20795996;28;20103;-74
2023/02/18 02:38:20;;;;;;;9.40;4.85;;;;;;;11.73;100.00;101209.34;20794352;28;20481;-75
2023/02/18 02:48:21;;;;;;;7.93;5.05;;;;;;;11.73;100.00;101175.22;20791309;28;20092;-75
2023/02/18 02:58:23;;;;;;;7.70;5.05;;;;;;;11.80;100.00;101160.31;20798599;28;20053;-75
2023/02/18 03:08:24;;;;;;;7.82;4.88;;;;;;;11.73;100.00;101156.00;20797788;28;20503;-74
2023/02/18 03:18:25;;;;;;;8.00;5.15;;;;;;;11.63;100.00;101149.09;20790473;28;20227;-75
2023/02/18 03:28:27;;;;;;;8.52;5.47;;;;;;;11.62;100.00;101158.72;20787229;28;20056;-76
2023/02/18 03:38:28;;;;;;;8.50;5.72;;;;;;;11.64;100.00;101146.47;20786992;28;20596;-74
2023/02/18 03:48:30;;;;;;;8.25;5.38;;;;;;;11.42;100.00;101119.53;20848034;28;20053;-76
2023/02/18 03:59:25;;;;;;;11.70;6.25;;;;;;;11.44;100.00;101123.00;20872733;28;20030;-75
2023/02/18 04:09:51;;;;;;;9.10;5.70;;;;;;;11.61;100.00;101127.25;20873130;28;20053;-75
2023/02/18 04:20:17;;;;;;;9.10;5.90;;;;;;;11.70;100.00;101129.81;20876698;28;20284;-76
2023/02/18 04:30:39;;;;;;;10.70;6.13;;;;;;;11.66;100.00;101123.72;20580752;28;20047;-76
2023/02/18 04:40:44;;;;;;;10.05;5.65;;;;;;;11.55;100.00;101126.44;20568745;29;20178;-75
2023/02/18 05:01:12;;;;;;;8.23;4.78;;;;;;;11.22;100.00;101127.53;20842061;28;20045;-76
2023/02/18 05:11:14;;;;;;;9.70;4.95;;;;;;;11.16;100.00;101126.69;20835473;28;20073;-76
2023/02/18 05:21:15;;;;;;;8.20;4.30;;;;;;;11.09;100.00;101110.16;20873611;28;20092;-76
2023/02/18 05:31:18;;;;;;;8.38;4.30;;;;;;;10.89;100.00;101107.66;20821892;28;20417;-76
2023/02/18 05:41:19;;;;;;;7.68;4.20;;;;;;;10.96;100.00;101098.88;20822059;28;20062;-75
2023/02/18 05:51:21;;;;;;;7.07;4.10;;;;;;;11.03;100.00;101104.97;20831758;28;20046;-75
2023/02/18 06:01:22;;;;;;;7.45;4.13;;;;;;;11.25;100.00;101103.91;20860197;28;20400;-76
2023/02/18 06:11:23;;;;;;;6.75;3.70;;;;;;;11.29;100.00;101102.16;20846676;28;20087;-76
2023/02/18 06:21:25;;;;;;;8.23;4.00;;;;;;;11.28;100.00;101087.31;20824068;28;20050;-75
2023/02/18 06:31:26;;;;;;;6.07;3.60;;;;;;;11.32;100.00;101099.50;20827335;28;20049;-77
2023/02/18 06:41:27;;;;;;;5.53;3.20;;;;;;;11.22;100.00;101106.56;20826893;28;20096;-77
2023/02/18 06:51:29;;;;;;;5.32;2.83;;;;;;;11.28;100.00;101079.44;20849596;28;20060;-77
2023/02/18 07:01:30;;;;;;;4.65;2.72;;;;;;;11.36;100.00;101071.53;20834391;28;20065;-73
2023/02/18 07:11:31;;;;;;;5.35;2.60;;;;;;;11.42;100.00;101056.59;20818091;28;20096;-75
2023/02/18 07:21:33;;;;;;;5.65;2.70;;;;;;;11.47;100.00;101044.31;20821688;28;20076;-76
2023/02/18 07:31:34;;;;;;;5.53;2.67;;;;;;;11.59;100.00;101042.44;20833958;28;20073;-74
2023/02/18 07:41:37;;;;;;;5.10;2.33;;;;;;;11.65;100.00;101047.66;20835979;28;20049;-74
2023/02/18 07:51:39;;;;;;;5.43;2.78;;;;;;;11.73;100.00;101035.31;20810764;28;20049;-74
2023/02/18 08:01:40;;;;;;;4.75;2.63;;;;;;;11.98;100.00;101026.34;20785209;28;20374;-74
2023/02/18 08:11:44;;;;;;;4.57;2.28;;;;;;;12.12;100.00;101022.66;20797627;28;20058;-74
2023/02/18 08:21:45;;;;;;;6.07;2.50;;;;;;;12.37;100.00;101032.00;20776380;28;20053;-74
2023/02/18 08:31:46;;;;;;;6.53;2.30;;;;;;;12.65;100.00;101005.31;20775857;28;20072;-74
2023/02/18 08:41:48;;;;;;;6.00;3.00;;;;;;;12.87;100.00;101019.03;20789787;28;20156;-74
2023/02/18 08:51:49;;;;;;;5.38;3.03;;;;;;;13.29;100.00;101012.25;20813800;28;20456;-73
2023/02/18 09:01:50;;;;;;;5.20;3.03;;;;;;;13.29;100.00;101004.34;20811015;28;20103;-74
2023/02/18 09:11:52;;;;;;;17.45;7.22;;;;;;;13.26;100.00;100996.50;20803822;28;20050;-75
2023/02/18 09:21:53;;;;;;;4.38;2.40;;;;;;;13.50;100.00;100997.84;20798797;28;20054;-75
2023/02/18 09:31:54;;;;;;;6.80;2.85;;;;;;;13.58;100.00;100983.66;20802956;28;20054;-75
2023/02/18 09:41:56;;;;;;;4.53;2.47;;;;;;;13.66;100.00;100980.88;20730115;23;20065;-78
2023/02/18 09:51:57;;;;;;;5.35;2.00;;;;;;;13.91;100.00;100988.31;20654526;28;20055;-78
2023/02/18 10:01:59;;;;;;;8.02;2.15;;;;;;;13.93;100.00;101020.72;20630463;28;20054;-77
2023/02/18 10:12:02;;;;;;;4.60;2.47;;;;;;;13.71;100.00;101017.66;20634994;28;20058;-77
2023/02/18 10:22:03;;;;;;;5.57;2.72;;;;;;;14.06;100.00;101020.44;20644507;28;20196;-77
2023/02/18 10:32:06;;;;;;;5.15;2.47;;;;;;;14.37;100.00;100996.09;20657047;28;20046;-77
2023/02/18 10:42:07;;;;;;;6.70;2.65;;;;;;;14.37;100.00;101006.63;20677823;28;20050;-77
2023/02/18 10:52:09;;;;;;;5.32;2.10;;;;;;;14.10;100.00;100993.16;20688942;28;20443;-77
2023/02/18 11:02:10;;;;;;;4.88;2.10;;;;;;;14.17;100.00;101014.09;20688200;28;20050;-77
2023/02/18 11:12:11;;;;;;;5.95;2.45;;;;;;;14.27;100.00;101005.09;20705173;28;20054;-77
2023/02/18 11:22:12;;;;;;;4.00;2.13;;;;;;;14.58;100.00;101016.75;20704180;28;20100;-77
2023/02/18 11:32:14;;;;;;;4.57;2.45;;;;;;;14.33;100.00;101021.66;20699402;28;20054;-77
2023/02/18 11:42:15;;;;;;;5.55;3.03;;;;;;;14.01;100.00;101008.28;20710840;28;20079;-77
2023/02/18 11:52:17;;;;;;;4.68;2.45;;;;;;;13.84;100.00;101021.75;20700683;28;20061;-77
2023/02/18 12:02:18;;;;;;;5.95;2.65;;;;;;;13.84;100.00;101000.69;20703524;28;20053;-77
2023/02/18 12:12:20;;;;;;;4.43;2.28;;;;;;;13.82;100.00;100995.47;20733662;28;20053;-77
2023/02/18 12:22:21;;;;;;;5.78;2.53;;;;;;;13.90;100.00;100983.94;20713670;28;20311;-77
2023/02/18 12:32:22;;;;;;;7.22;2.63;;;;;;;13.86;100.00;100975.22;20711588;28;20050;-77
2023/02/18 12:42:23;;;;;;;6.32;2.30;;;;;;;13.65;100.00;100973.88;20711178;28;20491;-77
2023/02/18 12:52:25;;;;;;;6.60;2.90;;;;;;;13.57;100.00;100984.56;20716583;28;20042;-77
2023/02/18 13:02:26;;;;;;;3.60;1.70;;;;;;;13.58;100.00;100970.50;20725585;28;20050;-77
2023/02/18 13:12:27;;;;;;;2.83;1.38;;;;;;;14.02;100.00;100950.31;20726195;28;20137;-77
2023/02/18 13:22:29;;;;;;;4.47;1.40;;;;;;;14.36;100.00;100941.66;20727866;28;20104;-78
2023/02/18 13:32:30;;;;;;;3.20;1.60;;;;;;;14.16;100.00;100922.81;20725385;28;20049;-77
2023/02/18 13:42:31;;;;;;;5.50;2.13;;;;;;;14.32;100.00;100921.56;20719294;28;20050;-77
2023/02/18 13:52:32;;;;;;;4.20;2.20;;;;;;;14.41;100.00;100913.44;20722855;28;20058;-77
2023/02/18 14:02:34;;;;;;;6.43;3.30;;;;;;;14.52;100.00;100905.34;20724025;28;20597;-76
2023/02/18 14:12:36;;;;;;;7.18;3.67;;;;;;;14.05;100.00;100937.09;20708512;28;20045;-77
2023/02/18 14:22:37;;;;;;;6.63;3.72;;;;;;;13.78;100.00;100953.44;20719892;28;20050;-77
2023/02/18 14:32:38;;;;;;;5.72;3.58;;;;;;;13.59;100.00;100950.31;20717563;28;20046;-76
2023/02/18 14:42:40;;;;;;;6.63;3.67;;;;;;;13.54;100.00;100952.16;20709426;28;20050;-76
2023/02/18 14:52:41;;;;;;;10.27;3.65;;;;;;;13.43;100.00;100956.78;20695381;28;20108;-77
2023/02/18 15:02:42;;;;;;;7.10;3.80;;;;;;;13.50;100.00;100948.72;20721675;28;20049;-77
2023/02/18 15:12:44;;;;;;;7.97;3.80;;;;;;;13.23;100.00;100938.72;20715675;28;20471;-77
2023/02/18 15:22:45;;;;;;;8.05;4.00;;;;;;;13.18;100.00;100936.16;20725739;28;20054;-78
2023/02/18 15:32:46;;;;;;;7.80;4.38;;;;;;;13.17;100.00;100934.38;20705641;28;20045;-78
2023/02/18 15:42:47;;;;;;;7.47;4.03;;;;;;;13.08;100.00;100939.84;20699094;28;20046;-79
2023/02/18 15:52:58;;;;;;;6.28;3.72;;;;;;;12.85;100.00;100937.59;20714329;28;20641;-78
2023/02/18 16:02:59;;;;;;;6.90;3.72;;;;;;;12.73;100.00;100932.53;20715518;28;20050;-78
2023/02/18 16:13:01;;;;;;;6.40;3.38;;;;;;;12.66;100.00;100934.38;20725926;28;20050;-78
2023/02/18 16:23:03;;;;;;;5.95;3.15;;;;;;;12.54;100.00;100930.19;20717458;28;20054;-78
2023/02/18 16:33:04;;;;;;;5.40;2.50;;;;;;;12.58;100.00;100945.00;20711040;28;20084;-78
2023/02/18 16:43:05;;;;;;;6.70;2.80;;;;;;;12.46;100.00;100960.97;20709459;28;20459;-78
2023/02/18 16:53:06;;;;;;;8.88;3.00;;;;;;;12.37;100.00;100968.09;20708775;28;20046;-78
2023/02/18 17:03:08;;;;;;;5.22;2.50;;;;;;;12.25;100.00;100966.50;20710861;28;20046;-78
2023/02/18 17:13:09;;;;;;;5.65;2.45;;;;;;;12.05;100.00;100964.13;20711696;28;20062;-78
2023/02/18 17:23:10;;;;;;;7.68;3.40;;;;;;;12.03;100.00;100972.03;20721762;28;20053;-78
2023/02/18 17:33:11;;;;;;;60.78;5.00;;;;;;;11.92;100.00;100987.03;20727257;28;20058;-78
2023/02/18 17:43:13;;;;;;;7.53;2.90;;;;;;;11.72;100.00;101002.97;20754244;28;20054;-77
2023/02/18 17:53:15;;;;;;;5.07;2.35;;;;;;;11.69;100.00;101004.75;20731773;28;20465;-79
2023/02/18 18:03:16;;;;;;;5.75;2.55;;;;;;;11.63;100.00;101016.19;20745551;28;20101;-79
2023/02/18 18:13:17;;;;;;;6.60;2.75;;;;;;;11.59;100.00;101016.22;20726738;28;20051;-77
2023/02/18 18:23:19;;;;;;;6.13;3.10;;;;;;;11.51;100.00;101025.06;20730462;28;20042;-77
2023/02/18 18:44:06;;;;;;;7.05;3.25;;;;;;;11.21;100.00;101026.22;20885938;23;20383;-77
2023/02/18 18:54:08;;;;;;;7.50;3.47;;;;;;;10.91;100.00;101032.53;20650559;28;20475;-78
2023/02/18 19:04:31;;;;;;;8.00;4.03;;;;;;;10.77;100.00;101023.88;20644616;28;20050;-77
2023/02/18 19:14:31;;;;;;;8.00;4.00;;;;;;;10.74;100.00;101021.31;20646459;28;20258;-77
2023/02/18 19:24:32;;;;;;;7.13;3.80;;;;;;;10.68;100.00;101013.47;20642543;28;20119;-77
2023/02/18 19:34:34;;;;;;;7.97;4.70;;;;;;;10.69;100.00;101017.84;20641836;28;20065;-77
2023/02/18 19:44:35;;;;;;;8.85;4.95;;;;;;;10.62;100.00;101031.84;20642148;28;20086;-74
2023/02/18 19:54:36;;;;;;;9.30;5.25;;;;;;;10.52;100.00;101026.66;20633271;28;20050;-78
2023/02/18 20:04:38;;;;;;;11.55;5.80;;;;;;;10.37;100.00;101024.13;20639201;28;20047;-75
2023/02/18 20:14:39;;;;;;;10.68;5.95;;;;;;;10.28;100.00;101008.47;20644751;28;20054;-76
2023/02/18 20:24:40;;;;;;;11.27;6.50;;;;;;;10.27;100.00;101001.50;20642308;28;20494;-75
2023/02/18 20:34:42;;;;;;;9.82;5.82;;;;;;;10.24;100.00;101004.97;20641218;28;20482;-77
2023/02/18 20:44:43;;;;;;;11.00;5.88;;;;;;;10.17;100.00;101005.00;20654636;28;20442;-77
2023/02/18 20:54:44;;;;;;;9.05;5.53;;;;;;;9.99;100.00;100996.34;20647762;28;20054;-77
2023/02/18 21:04:46;;;;;;;8.88;5.35;;;;;;;9.95;100.00;101010.31;20652920;28;20481;-77
2023/02/18 21:14:47;;;;;;;8.60;5.68;;;;;;;9.89;100.00;100994.63;20654354;28;20431;-77
2023/02/18 21:24:48;;;;;;;8.32;5.10;;;;;;;9.95;100.00;101010.31;20653900;28;20090;-77
2023/02/18 21:34:49;;;;;;;7.88;5.00;;;;;;;9.96;100.00;101005.94;20652976;28;20101;-75
2023/02/18 21:44:51;;;;;;;9.32;5.32;;;;;;;9.89;100.00;100989.41;20661013;28;20070;-76
2023/02/18 21:54:52;;;;;;;8.80;5.22;;;;;;;9.88;100.00;100977.22;20650858;28;20069;-76
2023/02/18 22:04:53;;;;;;;8.23;5.18;;;;;;;9.89;100.00;100972.84;20648669;28;20077;-76
2023/02/18 22:14:55;;;;;;;8.30;5.45;;;;;;;9.94;100.00;100965.84;20651052;28;20054;-76
2023/02/18 22:24:56;;;;;;;8.40;5.22;;;;;;;9.80;100.00;100960.66;20647009;28;20519;-78
2023/02/18 22:34:57;;;;;;;8.65;5.40;;;;;;;9.71;100.00;100955.47;20647491;28;20553;-77
2023/02/18 22:45:01;;;;;;;8.05;5.20;;;;;;;9.85;100.00;100945.81;20644663;28;20132;-76
2023/02/18 22:55:03;;;;;;;7.95;5.55;;;;;;;9.83;100.00;100934.50;20647161;28;20129;-76
2023/02/18 23:05:04;;;;;;;8.00;5.18;;;;;;;9.76;100.00;100931.03;20646811;28;20062;-77
2023/02/18 23:15:05;;;;;;;9.98;5.30;;;;;;;9.83;100.00;100921.44;20647511;28;20179;-76
2023/02/18 23:25:06;;;;;;;7.97;5.00;;;;;;;9.69;100.00;100918.00;20647356;28;20074;-77
2023/02/18 23:35:08;;;;;;;8.27;4.55;;;;;;;9.72;100.00;100920.59;20644820;28;20104;-75
2023/02/18 23:45:09;;;;;;;6.30;3.63;;;;;;;9.61;100.00;100919.78;20644027;28;20050;-75
2023/02/18 23:55:10;;;;;;;6.32;4.05;;;;;;;9.50;100.00;100912.84;20643743;28;20057;-77
